sensor_id;sensor_type;location;lat;lon;timestamp;temperature;humidity
41304;DHT22;51002;51.462;7.218;2023-06-14T00:01:49;19.60;49.90
41304;DHT22;51002;51.462;7.218;2023-06-14T00:04:14;19.60;48.90
41304;DHT22;51002;51.462;7.218;2023-06-14T00:06:46;19.60;52.30
41304;DHT22;51002;51.462;7.218;2023-06-14T00:09:13;19.50;51.80
41304;DHT22;51002;51.462;7.218;2023-06-14T00:11:41;19.60;51.70
41304;DHT22;51002;51.462;7.218;2023-06-14T00:14:09;19.50;52.70
41304;DHT22;51002;51.462;7.218;2023-06-14T00:16:37;19.50;52.10
41304;DHT22;51002;51.462;7.218;2023-06-14T00:19:04;19.50;51.40
41304;DHT22;51002;51.462;7.218;2023-06-14T00:21:30;19.50;51.60
41304;DHT22;51002;51.462;7.218;2023-06-14T00:23:56;19.50;50.10
41304;DHT22;51002;51.462;7.218;2023-06-14T00:26:22;19.50;52.30
41304;DHT22;51002;51.462;7.218;2023-06-14T00:28:51;19.40;51.80
41304;DHT22;51002;51.462;7.218;2023-06-14T00:31:19;19.40;50.70
41304;DHT22;51002;51.462;7.218;2023-06-14T00:33:46;19.40;51.00
41304;DHT22;51002;51.462;7.218;2023-06-14T00:36:13;19.40;50.60
41304;DHT22;51002;51.462;7.218;2023-06-14T00:38:41;19.30;50.80
41304;DHT22;51002;51.462;7.218;2023-06-14T00:41:07;19.30;49.40
41304;DHT22;51002;51.462;7.218;2023-06-14T00:43:37;19.30;50.10
41304;DHT22;51002;51.462;7.218;2023-06-14T00:46:02;19.40;51.10
41304;DHT22;51002;51.462;7.218;2023-06-14T00:48:28;19.30;50.70
41304;DHT22;51002;51.462;7.218;2023-06-14T00:50:54;19.30;50.90
41304;DHT22;51002;51.462;7.218;2023-06-14T00:53:19;19.20;51.80
41304;DHT22;51002;51.462;7.218;2023-06-14T00:55:48;19.20;50.70
41304;DHT22;51002;51.462;7.218;2023-06-14T00:58:13;19.20;49.90
41304;DHT22;51002;51.462;7.218;2023-06-14T01:00:39;19.20;51.10
41304;DHT22;51002;51.462;7.218;2023-06-14T01:03:07;19.20;52.40
41304;DHT22;51002;51.462;7.218;2023-06-14T01:05:33;19.20;50.10
41304;DHT22;51002;51.462;7.218;2023-06-14T01:10:51;19.20;50.60
41304;DHT22;51002;51.462;7.218;2023-06-14T01:13:25;19.20;49.70
41304;DHT22;51002;51.462;7.218;2023-06-14T01:15:52;19.20;49.20
41304;DHT22;51002;51.462;7.218;2023-06-14T01:18:18;19.20;48.90
41304;DHT22;51002;51.462;7.218;2023-06-14T01:20:44;19.20;50.40
41304;DHT22;51002;51.462;7.218;2023-06-14T01:23:18;19.20;50.10
41304;DHT22;51002;51.462;7.218;2023-06-14T01:25:46;19.20;50.30
41304;DHT22;51002;51.462;7.218;2023-06-14T01:28:12;19.00;48.50
41304;DHT22;51002;51.462;7.218;2023-06-14T01:30:42;19.10;49.60
41304;DHT22;51002;51.462;7.218;2023-06-14T01:33:13;19.10;48.70
41304;DHT22;51002;51.462;7.218;2023-06-14T01:35:40;19.10;51.00
41304;DHT22;51002;51.462;7.218;2023-06-14T01:38:08;19.10;49.30
41304;DHT22;51002;51.462;7.218;2023-06-14T01:40:34;19.10;51.90
41304;DHT22;51002;51.462;7.218;2023-06-14T01:43:00;19.00;49.30
41304;DHT22;51002;51.462;7.218;2023-06-14T01:45:29;19.00;49.00
41304;DHT22;51002;51.462;7.218;2023-06-14T01:47:54;19.00;49.80
41304;DHT22;51002;51.462;7.218;2023-06-14T01:50:20;18.80;50.20
41304;DHT22;51002;51.462;7.218;2023-06-14T01:52:46;18.90;51.90
41304;DHT22;51002;51.462;7.218;2023-06-14T01:55:11;19.00;51.10
41304;DHT22;51002;51.462;7.218;2023-06-14T01:57:43;18.90;49.20
41304;DHT22;51002;51.462;7.218;2023-06-14T02:00:08;18.90;49.50
41304;DHT22;51002;51.462;7.218;2023-06-14T02:02:38;18.90;50.70
41304;DHT22;51002;51.462;7.218;2023-06-14T02:05:03;18.80;49.20
41304;DHT22;51002;51.462;7.218;2023-06-14T02:07:31;18.80;51.40
41304;DHT22;51002;51.462;7.218;2023-06-14T02:09:56;18.80;49.40
41304;DHT22;51002;51.462;7.218;2023-06-14T02:12:22;18.90;51.30
41304;DHT22;51002;51.462;7.218;2023-06-14T02:14:47;18.90;51.00
41304;DHT22;51002;51.462;7.218;2023-06-14T02:17:15;18.80;50.20
41304;DHT22;51002;51.462;7.218;2023-06-14T02:19:41;18.80;51.40
41304;DHT22;51002;51.462;7.218;2023-06-14T02:22:07;18.80;51.40
41304;DHT22;51002;51.462;7.218;2023-06-14T02:24:35;18.80;51.00
41304;DHT22;51002;51.462;7.218;2023-06-14T02:27:01;18.70;52.60
41304;DHT22;51002;51.462;7.218;2023-06-14T02:29:27;18.70;50.40
41304;DHT22;51002;51.462;7.218;2023-06-14T02:31:52;18.70;51.20
41304;DHT22;51002;51.462;7.218;2023-06-14T02:34:18;18.70;52.30
41304;DHT22;51002;51.462;7.218;2023-06-14T02:36:45;18.60;52.10
41304;DHT22;51002;51.462;7.218;2023-06-14T02:39:10;18.60;52.00
41304;DHT22;51002;51.462;7.218;2023-06-14T02:41:36;18.70;53.10
41304;DHT22;51002;51.462;7.218;2023-06-14T02:44:01;18.60;52.60
41304;DHT22;51002;51.462;7.218;2023-06-14T02:46:27;18.60;51.80
41304;DHT22;51002;51.462;7.218;2023-06-14T02:48:55;18.60;51.20
41304;DHT22;51002;51.462;7.218;2023-06-14T02:51:20;18.60;53.20
41304;DHT22;51002;51.462;7.218;2023-06-14T02:53:46;18.50;51.70
41304;DHT22;51002;51.462;7.218;2023-06-14T02:56:11;18.50;52.90
41304;DHT22;51002;51.462;7.218;2023-06-14T02:58:37;18.50;51.20
41304;DHT22;51002;51.462;7.218;2023-06-14T03:01:04;18.60;51.90
41304;DHT22;51002;51.462;7.218;2023-06-14T03:03:30;18.50;52.70
41304;DHT22;51002;51.462;7.218;2023-06-14T03:05:56;18.50;51.10
41304;DHT22;51002;51.462;7.218;2023-06-14T03:08:22;18.30;50.60
41304;DHT22;51002;51.462;7.218;2023-06-14T03:10:52;18.30;51.50
41304;DHT22;51002;51.462;7.218;2023-06-14T03:13:18;18.20;50.80
41304;DHT22;51002;51.462;7.218;2023-06-14T03:15:46;18.20;51.60
41304;DHT22;51002;51.462;7.218;2023-06-14T03:18:12;18.20;51.20
41304;DHT22;51002;51.462;7.218;2023-06-14T03:20:42;18.20;51.10
41304;DHT22;51002;51.462;7.218;2023-06-14T03:23:11;18.20;52.10
41304;DHT22;51002;51.462;7.218;2023-06-14T03:25:36;18.30;50.90
41304;DHT22;51002;51.462;7.218;2023-06-14T03:28:06;18.30;53.10
41304;DHT22;51002;51.462;7.218;2023-06-14T03:30:32;18.30;53.60
41304;DHT22;51002;51.462;7.218;2023-06-14T03:32:57;18.30;51.20
41304;DHT22;51002;51.462;7.218;2023-06-14T03:35:26;18.40;53.30
41304;DHT22;51002;51.462;7.218;2023-06-14T03:37:52;18.30;52.60
41304;DHT22;51002;51.462;7.218;2023-06-14T03:40:18;18.30;51.90
41304;DHT22;51002;51.462;7.218;2023-06-14T03:42:45;18.30;52.80
41304;DHT22;51002;51.462;7.218;2023-06-14T03:45:12;18.20;54.00
41304;DHT22;51002;51.462;7.218;2023-06-14T03:47:37;18.30;53.80
41304;DHT22;51002;51.462;7.218;2023-06-14T03:50:03;18.30;52.70
41304;DHT22;51002;51.462;7.218;2023-06-14T03:52:29;18.20;53.10
41304;DHT22;51002;51.462;7.218;2023-06-14T03:54:54;18.10;53.10
41304;DHT22;51002;51.462;7.218;2023-06-14T03:57:21;18.20;53.10
41304;DHT22;51002;51.462;7.218;2023-06-14T03:59:47;18.20;52.00
41304;DHT22;51002;51.462;7.218;2023-06-14T04:02:12;18.20;52.10
41304;DHT22;51002;51.462;7.218;2023-06-14T04:04:43;18.20;51.20
41304;DHT22;51002;51.462;7.218;2023-06-14T04:07:14;18.00;51.40
41304;DHT22;51002;51.462;7.218;2023-06-14T04:09:40;18.10;51.00
41304;DHT22;51002;51.462;7.218;2023-06-14T04:12:08;18.10;52.70
41304;DHT22;51002;51.462;7.218;2023-06-14T04:14:34;18.10;53.60
41304;DHT22;51002;51.462;7.218;2023-06-14T04:17:00;18.10;53.50
41304;DHT22;51002;51.462;7.218;2023-06-14T04:19:26;18.20;53.00
41304;DHT22;51002;51.462;7.218;2023-06-14T04:21:52;18.00;51.80
41304;DHT22;51002;51.462;7.218;2023-06-14T04:24:17;17.90;51.50
41304;DHT22;51002;51.462;7.218;2023-06-14T04:26:45;18.00;54.80
41304;DHT22;51002;51.462;7.218;2023-06-14T04:29:15;18.00;51.80
41304;DHT22;51002;51.462;7.218;2023-06-14T04:31:45;17.90;53.50
41304;DHT22;51002;51.462;7.218;2023-06-14T04:34:10;17.80;51.90
41304;DHT22;51002;51.462;7.218;2023-06-14T04:36:42;17.90;52.50
41304;DHT22;51002;51.462;7.218;2023-06-14T04:39:16;17.90;52.10
41304;DHT22;51002;51.462;7.218;2023-06-14T04:41:45;18.00;54.10
41304;DHT22;51002;51.462;7.218;2023-06-14T04:44:12;18.10;52.20
41304;DHT22;51002;51.462;7.218;2023-06-14T04:46:38;18.10;53.90
41304;DHT22;51002;51.462;7.218;2023-06-14T04:49:19;18.20;54.90
41304;DHT22;51002;51.462;7.218;2023-06-14T04:51:45;18.20;52.90
41304;DHT22;51002;51.462;7.218;2023-06-14T04:54:12;18.20;54.50
41304;DHT22;51002;51.462;7.218;2023-06-14T04:56:43;18.20;53.80
41304;DHT22;51002;51.462;7.218;2023-06-14T04:59:10;18.10;55.60
41304;DHT22;51002;51.462;7.218;2023-06-14T05:01:40;18.10;52.70
41304;DHT22;51002;51.462;7.218;2023-06-14T05:04:05;18.00;53.50
41304;DHT22;51002;51.462;7.218;2023-06-14T05:06:33;18.10;55.10
41304;DHT22;51002;51.462;7.218;2023-06-14T05:09:01;18.00;52.50
41304;DHT22;51002;51.462;7.218;2023-06-14T05:11:29;17.90;53.30
41304;DHT22;51002;51.462;7.218;2023-06-14T05:13:55;17.90;51.90
41304;DHT22;51002;51.462;7.218;2023-06-14T05:16:20;17.90;52.70
41304;DHT22;51002;51.462;7.218;2023-06-14T05:18:50;18.10;52.70
41304;DHT22;51002;51.462;7.218;2023-06-14T05:21:17;18.30;55.90
41304;DHT22;51002;51.462;7.218;2023-06-14T05:23:43;18.20;54.00
41304;DHT22;51002;51.462;7.218;2023-06-14T05:26:10;18.20;52.80
41304;DHT22;51002;51.462;7.218;2023-06-14T05:28:37;18.20;53.80
41304;DHT22;51002;51.462;7.218;2023-06-14T05:31:03;18.30;57.20
41304;DHT22;51002;51.462;7.218;2023-06-14T05:33:28;18.30;56.10
41304;DHT22;51002;51.462;7.218;2023-06-14T05:35:56;18.20;64.80
41304;DHT22;51002;51.462;7.218;2023-06-14T05:38:21;17.90;53.50
41304;DHT22;51002;51.462;7.218;2023-06-14T05:40:47;18.00;64.00
41304;DHT22;51002;51.462;7.218;2023-06-14T05:43:13;18.00;65.30
41304;DHT22;51002;51.462;7.218;2023-06-14T05:45:38;18.00;66.90
41304;DHT22;51002;51.462;7.218;2023-06-14T05:48:06;18.00;59.30
41304;DHT22;51002;51.462;7.218;2023-06-14T05:50:31;18.00;63.90
41304;DHT22;51002;51.462;7.218;2023-06-14T05:52:57;18.20;65.40
41304;DHT22;51002;51.462;7.218;2023-06-14T05:55:22;17.90;55.00
41304;DHT22;51002;51.462;7.218;2023-06-14T05:57:50;18.20;61.60
41304;DHT22;51002;51.462;7.218;2023-06-14T06:00:16;18.20;57.40
41304;DHT22;51002;51.462;7.218;2023-06-14T06:02:42;18.30;56.20
41304;DHT22;51002;51.462;7.218;2023-06-14T06:05:13;18.30;55.20
41304;DHT22;51002;51.462;7.218;2023-06-14T06:07:38;18.40;57.70
41304;DHT22;51002;51.462;7.218;2023-06-14T06:10:09;18.30;64.50
41304;DHT22;51002;51.462;7.218;2023-06-14T06:12:35;18.30;60.20
41304;DHT22;51002;51.462;7.218;2023-06-14T06:15:01;18.20;53.80
41304;DHT22;51002;51.462;7.218;2023-06-14T06:17:26;18.30;53.30
41304;DHT22;51002;51.462;7.218;2023-06-14T06:19:52;18.50;55.40
41304;DHT22;51002;51.462;7.218;2023-06-14T06:22:17;18.40;54.10
41304;DHT22;51002;51.462;7.218;2023-06-14T06:24:43;18.50;52.70
41304;DHT22;51002;51.462;7.218;2023-06-14T06:27:11;18.50;54.00
41304;DHT22;51002;51.462;7.218;2023-06-14T06:29:38;18.70;53.20
41304;DHT22;51002;51.462;7.218;2023-06-14T06:32:03;18.70;58.20
41304;DHT22;51002;51.462;7.218;2023-06-14T06:34:29;18.70;56.40
41304;DHT22;51002;51.462;7.218;2023-06-14T06:36:55;18.70;57.10
41304;DHT22;51002;51.462;7.218;2023-06-14T06:39:23;18.80;50.30
41304;DHT22;51002;51.462;7.218;2023-06-14T06:41:48;19.40;65.60
41304;DHT22;51002;51.462;7.218;2023-06-14T06:44:14;19.80;56.30
41304;DHT22;51002;51.462;7.218;2023-06-14T06:46:43;19.90;58.70
41304;DHT22;51002;51.462;7.218;2023-06-14T06:49:08;20.00;59.60
41304;DHT22;51002;51.462;7.218;2023-06-14T06:51:37;20.00;58.40
41304;DHT22;51002;51.462;7.218;2023-06-14T06:54:02;20.10;50.40
41304;DHT22;51002;51.462;7.218;2023-06-14T06:56:28;19.90;50.80
41304;DHT22;51002;51.462;7.218;2023-06-14T06:58:56;20.20;57.90
41304;DHT22;51002;51.462;7.218;2023-06-14T07:01:24;20.50;57.70
41304;DHT22;51002;51.462;7.218;2023-06-14T07:03:51;20.60;53.70
41304;DHT22;51002;51.462;7.218;2023-06-14T07:06:17;20.50;50.20
41304;DHT22;51002;51.462;7.218;2023-06-14T07:08:44;20.60;55.80
41304;DHT22;51002;51.462;7.218;2023-06-14T07:11:09;20.60;52.10
41304;DHT22;51002;51.462;7.218;2023-06-14T07:13:35;20.80;54.10
41304;DHT22;51002;51.462;7.218;2023-06-14T07:16:01;20.40;51.50
41304;DHT22;51002;51.462;7.218;2023-06-14T07:18:29;20.70;49.00
41304;DHT22;51002;51.462;7.218;2023-06-14T07:20:55;20.60;47.40
41304;DHT22;51002;51.462;7.218;2023-06-14T07:23:22;20.60;49.50
41304;DHT22;51002;51.462;7.218;2023-06-14T07:25:50;20.90;53.10
41304;DHT22;51002;51.462;7.218;2023-06-14T07:28:16;20.80;49.10
41304;DHT22;51002;51.462;7.218;2023-06-14T07:30:45;20.90;48.80
41304;DHT22;51002;51.462;7.218;2023-06-14T07:33:10;21.00;51.90
41304;DHT22;51002;51.462;7.218;2023-06-14T07:35:37;21.20;52.60
41304;DHT22;51002;51.462;7.218;2023-06-14T07:38:05;21.20;46.10
41304;DHT22;51002;51.462;7.218;2023-06-14T07:40:33;21.00;50.40
41304;DHT22;51002;51.462;7.218;2023-06-14T07:42:58;20.80;46.30
41304;DHT22;51002;51.462;7.218;2023-06-14T07:45:24;21.00;44.90
41304;DHT22;51002;51.462;7.218;2023-06-14T07:47:50;21.20;50.10
41304;DHT22;51002;51.462;7.218;2023-06-14T07:50:16;20.90;48.20
41304;DHT22;51002;51.462;7.218;2023-06-14T07:52:44;21.20;50.50
41304;DHT22;51002;51.462;7.218;2023-06-14T07:55:10;21.30;48.30
41304;DHT22;51002;51.462;7.218;2023-06-14T07:57:35;21.30;48.80
41304;DHT22;51002;51.462;7.218;2023-06-14T08:00:02;21.10;50.40
41304;DHT22;51002;51.462;7.218;2023-06-14T08:02:29;21.20;49.10
41304;DHT22;51002;51.462;7.218;2023-06-14T08:04:54;21.20;50.70
41304;DHT22;51002;51.462;7.218;2023-06-14T08:07:20;21.30;51.10
41304;DHT22;51002;51.462;7.218;2023-06-14T08:09:48;21.10;48.00
41304;DHT22;51002;51.462;7.218;2023-06-14T08:12:13;21.10;47.10
41304;DHT22;51002;51.462;7.218;2023-06-14T08:14:41;21.30;50.90
41304;DHT22;51002;51.462;7.218;2023-06-14T08:17:07;21.40;45.10
41304;DHT22;51002;51.462;7.218;2023-06-14T08:19:33;21.40;47.40
41304;DHT22;51002;51.462;7.218;2023-06-14T08:21:58;21.60;49.90
41304;DHT22;51002;51.462;7.218;2023-06-14T08:24:25;21.60;47.60
41304;DHT22;51002;51.462;7.218;2023-06-14T08:26:53;21.50;47.20
41304;DHT22;51002;51.462;7.218;2023-06-14T08:29:19;21.70;43.60
41304;DHT22;51002;51.462;7.218;2023-06-14T08:31:45;21.90;44.00
41304;DHT22;51002;51.462;7.218;2023-06-14T08:34:10;21.80;46.20
41304;DHT22;51002;51.462;7.218;2023-06-14T08:36:38;21.80;48.50
41304;DHT22;51002;51.462;7.218;2023-06-14T08:39:03;21.80;45.10
41304;DHT22;51002;51.462;7.218;2023-06-14T08:41:32;21.80;49.10
41304;DHT22;51002;51.462;7.218;2023-06-14T08:44:00;21.70;44.60
41304;DHT22;51002;51.462;7.218;2023-06-14T08:46:25;21.70;45.00
41304;DHT22;51002;51.462;7.218;2023-06-14T08:48:54;21.80;47.70
41304;DHT22;51002;51.462;7.218;2023-06-14T08:51:22;21.80;46.10
41304;DHT22;51002;51.462;7.218;2023-06-14T08:53:52;21.80;42.40
41304;DHT22;51002;51.462;7.218;2023-06-14T08:56:26;21.90;42.20
41304;DHT22;51002;51.462;7.218;2023-06-14T08:58:53;21.90;48.50
41304;DHT22;51002;51.462;7.218;2023-06-14T09:01:23;22.20;42.60
41304;DHT22;51002;51.462;7.218;2023-06-14T09:03:52;23.20;45.20
41304;DHT22;51002;51.462;7.218;2023-06-14T09:06:22;23.40;44.50
41304;DHT22;51002;51.462;7.218;2023-06-14T09:08:48;23.60;43.00
41304;DHT22;51002;51.462;7.218;2023-06-14T09:11:15;24.50;41.00
41304;DHT22;51002;51.462;7.218;2023-06-14T09:13:46;24.60;40.90
41304;DHT22;51002;51.462;7.218;2023-06-14T09:16:12;24.40;40.60
41304;DHT22;51002;51.462;7.218;2023-06-14T09:18:41;25.10;37.80
41304;DHT22;51002;51.462;7.218;2023-06-14T09:21:09;25.00;38.90
41304;DHT22;51002;51.462;7.218;2023-06-14T09:23:39;26.20;36.40
41304;DHT22;51002;51.462;7.218;2023-06-14T09:28:33;27.00;33.80
41304;DHT22;51002;51.462;7.218;2023-06-14T09:30:59;27.50;34.50
41304;DHT22;51002;51.462;7.218;2023-06-14T09:33:25;26.30;37.00
41304;DHT22;51002;51.462;7.218;2023-06-14T09:35:52;27.30;31.70
41304;DHT22;51002;51.462;7.218;2023-06-14T09:38:18;28.00;34.30
41304;DHT22;51002;51.462;7.218;2023-06-14T09:40:46;28.30;29.80
41304;DHT22;51002;51.462;7.218;2023-06-14T09:43:14;29.60;30.00
41304;DHT22;51002;51.462;7.218;2023-06-14T09:45:39;30.00;30.60
41304;DHT22;51002;51.462;7.218;2023-06-14T09:48:06;30.50;27.60
41304;DHT22;51002;51.462;7.218;2023-06-14T09:50:32;29.10;32.80
41304;DHT22;51002;51.462;7.218;2023-06-14T09:52:59;29.70;27.90
41304;DHT22;51002;51.462;7.218;2023-06-14T09:55:27;30.00;30.90
41304;DHT22;51002;51.462;7.218;2023-06-14T09:57:56;31.20;25.20
41304;DHT22;51002;51.462;7.218;2023-06-14T10:00:22;31.60;26.50
41304;DHT22;51002;51.462;7.218;2023-06-14T10:02:54;32.60;23.50
41304;DHT22;51002;51.462;7.218;2023-06-14T10:05:20;33.30;26.00
41304;DHT22;51002;51.462;7.218;2023-06-14T10:10:12;33.60;23.30
41304;DHT22;51002;51.462;7.218;2023-06-14T10:12:40;33.20;24.30
41304;DHT22;51002;51.462;7.218;2023-06-14T10:15:08;34.00;25.10
41304;DHT22;51002;51.462;7.218;2023-06-14T10:17:37;34.20;23.50
41304;DHT22;51002;51.462;7.218;2023-06-14T10:22:35;34.40;22.80
41304;DHT22;51002;51.462;7.218;2023-06-14T10:25:12;33.20;24.20
41304;DHT22;51002;51.462;7.218;2023-06-14T10:27:38;32.50;26.50
41304;DHT22;51002;51.462;7.218;2023-06-14T10:30:08;31.60;25.50
41304;DHT22;51002;51.462;7.218;2023-06-14T10:32:34;31.90;26.60
41304;DHT22;51002;51.462;7.218;2023-06-14T10:35:08;30.80;27.10
41304;DHT22;51002;51.462;7.218;2023-06-14T10:37:34;31.30;26.90
41304;DHT22;51002;51.462;7.218;2023-06-14T10:40:03;31.20;27.40
41304;DHT22;51002;51.462;7.218;2023-06-14T10:42:32;30.50;28.30
41304;DHT22;51002;51.462;7.218;2023-06-14T10:44:58;31.10;29.10
41304;DHT22;51002;51.462;7.218;2023-06-14T10:47:33;31.20;28.90
41304;DHT22;51002;51.462;7.218;2023-06-14T10:52:38;29.30;29.40
41304;DHT22;51002;51.462;7.218;2023-06-14T10:55:13;29.00;29.50
41304;DHT22;51002;51.462;7.218;2023-06-14T10:57:48;29.20;29.60
41304;DHT22;51002;51.462;7.218;2023-06-14T11:00:19;28.70;30.70
41304;DHT22;51002;51.462;7.218;2023-06-14T11:05:27;28.00;31.50
41304;DHT22;51002;51.462;7.218;2023-06-14T11:10:40;27.70;32.20
41304;DHT22;51002;51.462;7.218;2023-06-14T11:13:06;27.10;33.00
41304;DHT22;51002;51.462;7.218;2023-06-14T11:15:32;27.10;33.20
41304;DHT22;51002;51.462;7.218;2023-06-14T11:18:02;27.50;33.10
41304;DHT22;51002;51.462;7.218;2023-06-14T11:20:29;27.30;32.30
41304;DHT22;51002;51.462;7.218;2023-06-14T11:22:55;27.00;33.40
41304;DHT22;51002;51.462;7.218;2023-06-14T11:25:21;26.90;33.80
41304;DHT22;51002;51.462;7.218;2023-06-14T11:27:48;26.50;34.80
41304;DHT22;51002;51.462;7.218;2023-06-14T11:30:14;26.70;34.20
41304;DHT22;51002;51.462;7.218;2023-06-14T11:32:40;26.90;35.10
41304;DHT22;51002;51.462;7.218;2023-06-14T11:35:07;26.60;34.50
41304;DHT22;51002;51.462;7.218;2023-06-14T11:37:35;26.30;34.30
41304;DHT22;51002;51.462;7.218;2023-06-14T11:40:02;26.40;35.60
41304;DHT22;51002;51.462;7.218;2023-06-14T11:42:30;26.30;35.30
41304;DHT22;51002;51.462;7.218;2023-06-14T11:44:57;26.20;36.20
41304;DHT22;51002;51.462;7.218;2023-06-14T11:47:23;26.10;36.00
41304;DHT22;51002;51.462;7.218;2023-06-14T11:49:48;26.10;36.10
41304;DHT22;51002;51.462;7.218;2023-06-14T11:52:18;25.80;36.00
41304;DHT22;51002;51.462;7.218;2023-06-14T11:54:43;25.70;36.00
41304;DHT22;51002;51.462;7.218;2023-06-14T11:57:11;25.90;36.60
41304;DHT22;51002;51.462;7.218;2023-06-14T11:59:37;25.70;35.40
41304;DHT22;51002;51.462;7.218;2023-06-14T12:02:03;25.40;35.60
41304;DHT22;51002;51.462;7.218;2023-06-14T12:04:29;25.40;35.50
41304;DHT22;51002;51.462;7.218;2023-06-14T12:07:08;25.10;36.70
41304;DHT22;51002;51.462;7.218;2023-06-14T12:10:25;25.30;35.90
41304;DHT22;51002;51.462;7.218;2023-06-14T12:12:30;25.60;37.10
41304;DHT22;51002;51.462;7.218;2023-06-14T12:14:58;25.10;36.40
41304;DHT22;51002;51.462;7.218;2023-06-14T12:17:26;25.00;36.20
41304;DHT22;51002;51.462;7.218;2023-06-14T12:19:55;24.70;36.00
41304;DHT22;51002;51.462;7.218;2023-06-14T12:22:22;24.90;36.30
41304;DHT22;51002;51.462;7.218;2023-06-14T12:24:48;25.10;36.20
41304;DHT22;51002;51.462;7.218;2023-06-14T12:27:14;25.20;37.10
41304;DHT22;51002;51.462;7.218;2023-06-14T12:29:44;25.40;37.00
41304;DHT22;51002;51.462;7.218;2023-06-14T12:32:12;25.60;37.60
41304;DHT22;51002;51.462;7.218;2023-06-14T12:34:37;25.10;36.40
41304;DHT22;51002;51.462;7.218;2023-06-14T12:37:03;25.10;36.90
41304;DHT22;51002;51.462;7.218;2023-06-14T12:39:31;25.00;36.90
41304;DHT22;51002;51.462;7.218;2023-06-14T12:41:57;25.00;37.10
41304;DHT22;51002;51.462;7.218;2023-06-14T12:44:23;25.00;37.60
41304;DHT22;51002;51.462;7.218;2023-06-14T12:46:48;24.80;36.60
41304;DHT22;51002;51.462;7.218;2023-06-14T12:49:16;24.70;36.90
41304;DHT22;51002;51.462;7.218;2023-06-14T12:51:42;24.80;37.80
41304;DHT22;51002;51.462;7.218;2023-06-14T12:54:07;24.70;37.00
41304;DHT22;51002;51.462;7.218;2023-06-14T12:56:33;24.70;37.70
41304;DHT22;51002;51.462;7.218;2023-06-14T12:58:58;24.80;37.80
41304;DHT22;51002;51.462;7.218;2023-06-14T13:01:24;24.50;37.00
41304;DHT22;51002;51.462;7.218;2023-06-14T13:03:50;24.70;37.10
41304;DHT22;51002;51.462;7.218;2023-06-14T13:06:17;24.70;36.40
41304;DHT22;51002;51.462;7.218;2023-06-14T13:08:42;24.60;37.60
41304;DHT22;51002;51.462;7.218;2023-06-14T13:11:08;24.70;37.20
41304;DHT22;51002;51.462;7.218;2023-06-14T13:13:34;24.50;37.40
41304;DHT22;51002;51.462;7.218;2023-06-14T13:15:59;24.70;36.90
41304;DHT22;51002;51.462;7.218;2023-06-14T13:18:25;24.50;37.40
41304;DHT22;51002;51.462;7.218;2023-06-14T13:20:51;24.50;36.90
41304;DHT22;51002;51.462;7.218;2023-06-14T13:23:16;24.60;37.50
41304;DHT22;51002;51.462;7.218;2023-06-14T13:25:42;24.50;37.40
41304;DHT22;51002;51.462;7.218;2023-06-14T13:28:08;24.60;36.50
41304;DHT22;51002;51.462;7.218;2023-06-14T13:30:33;24.70;38.10
41304;DHT22;51002;51.462;7.218;2023-06-14T13:32:59;24.70;36.30
41304;DHT22;51002;51.462;7.218;2023-06-14T13:35:27;24.90;38.40
41304;DHT22;51002;51.462;7.218;2023-06-14T13:37:52;24.80;37.00
41304;DHT22;51002;51.462;7.218;2023-06-14T13:40:20;24.70;37.60
41304;DHT22;51002;51.462;7.218;2023-06-14T13:42:46;24.70;36.60
41304;DHT22;51002;51.462;7.218;2023-06-14T13:45:12;24.50;36.70
41304;DHT22;51002;51.462;7.218;2023-06-14T13:47:38;24.60;37.80
41304;DHT22;51002;51.462;7.218;2023-06-14T13:50:04;24.60;38.00
41304;DHT22;51002;51.462;7.218;2023-06-14T13:52:29;24.50;37.90
41304;DHT22;51002;51.462;7.218;2023-06-14T13:54:55;24.50;37.50
41304;DHT22;51002;51.462;7.218;2023-06-14T13:57:20;24.50;37.40
41304;DHT22;51002;51.462;7.218;2023-06-14T13:59:48;24.60;37.70
41304;DHT22;51002;51.462;7.218;2023-06-14T14:02:15;24.60;37.60
41304;DHT22;51002;51.462;7.218;2023-06-14T14:04:43;24.50;37.50
41304;DHT22;51002;51.462;7.218;2023-06-14T14:07:16;24.50;37.20
41304;DHT22;51002;51.462;7.218;2023-06-14T14:09:42;24.40;37.20
41304;DHT22;51002;51.462;7.218;2023-06-14T14:12:08;24.40;36.90
41304;DHT22;51002;51.462;7.218;2023-06-14T14:14:33;24.50;37.70
41304;DHT22;51002;51.462;7.218;2023-06-14T14:17:01;24.40;37.30
41304;DHT22;51002;51.462;7.218;2023-06-14T14:19:27;24.40;38.00
41304;DHT22;51002;51.462;7.218;2023-06-14T14:21:53;24.30;38.00
41304;DHT22;51002;51.462;7.218;2023-06-14T14:24:21;24.40;37.50
41304;DHT22;51002;51.462;7.218;2023-06-14T14:26:49;24.40;38.20
41304;DHT22;51002;51.462;7.218;2023-06-14T14:29:15;24.30;37.80
41304;DHT22;51002;51.462;7.218;2023-06-14T14:31:41;24.50;37.90
41304;DHT22;51002;51.462;7.218;2023-06-14T14:34:06;24.50;38.00
41304;DHT22;51002;51.462;7.218;2023-06-14T14:36:34;24.50;37.40
41304;DHT22;51002;51.462;7.218;2023-06-14T14:39:03;24.30;36.80
41304;DHT22;51002;51.462;7.218;2023-06-14T14:41:29;24.40;37.40
41304;DHT22;51002;51.462;7.218;2023-06-14T14:43:54;24.60;36.70
41304;DHT22;51002;51.462;7.218;2023-06-14T14:46:20;24.50;37.70
41304;DHT22;51002;51.462;7.218;2023-06-14T14:48:45;24.60;37.90
41304;DHT22;51002;51.462;7.218;2023-06-14T14:51:11;24.60;37.50
41304;DHT22;51002;51.462;7.218;2023-06-14T14:53:36;24.50;37.10
41304;DHT22;51002;51.462;7.218;2023-06-14T14:56:04;24.40;37.40
41304;DHT22;51002;51.462;7.218;2023-06-14T14:58:30;24.40;36.50
41304;DHT22;51002;51.462;7.218;2023-06-14T15:00:55;24.30;36.70
41304;DHT22;51002;51.462;7.218;2023-06-14T15:03:23;24.30;36.60
41304;DHT22;51002;51.462;7.218;2023-06-14T15:05:49;24.30;37.60
41304;DHT22;51002;51.462;7.218;2023-06-14T15:08:17;24.40;36.60
41304;DHT22;51002;51.462;7.218;2023-06-14T15:10:45;24.50;37.60
41304;DHT22;51002;51.462;7.218;2023-06-14T15:13:12;24.60;37.30
41304;DHT22;51002;51.462;7.218;2023-06-14T15:15:37;24.60;37.00
41304;DHT22;51002;51.462;7.218;2023-06-14T15:18:03;24.50;36.80
41304;DHT22;51002;51.462;7.218;2023-06-14T15:20:29;24.50;37.00
41304;DHT22;51002;51.462;7.218;2023-06-14T15:22:54;24.50;36.60
41304;DHT22;51002;51.462;7.218;2023-06-14T15:25:29;24.50;37.70
41304;DHT22;51002;51.462;7.218;2023-06-14T15:27:58;24.40;37.30
41304;DHT22;51002;51.462;7.218;2023-06-14T15:30:23;24.30;36.60
41304;DHT22;51002;51.462;7.218;2023-06-14T15:32:49;24.50;36.30
41304;DHT22;51002;51.462;7.218;2023-06-14T15:35:16;24.30;37.20
41304;DHT22;51002;51.462;7.218;2023-06-14T15:37:44;24.40;36.10
41304;DHT22;51002;51.462;7.218;2023-06-14T15:40:09;24.30;36.00
41304;DHT22;51002;51.462;7.218;2023-06-14T15:42:35;24.40;36.50
41304;DHT22;51002;51.462;7.218;2023-06-14T15:45:01;24.30;36.40
41304;DHT22;51002;51.462;7.218;2023-06-14T15:47:26;24.40;37.60